sensor_id;sensor_type;location;lat;lon;timestamp;P1;durP1;ratioP1;P2;durP2;ratioP2
52512;SDS011;38422;53.172;6.974;2023-02-02T00:01:51;17.63;;;3.38;;
52512;SDS011;38422;53.172;6.974;2023-02-02T00:04:20;16.05;;;2.45;;
52512;SDS011;38422;53.172;6.974;2023-02-02T00:06:50;18.55;;;2.60;;
52512;SDS011;38422;53.172;6.974;2023-02-02T00:09:17;15.23;;;2.22;;
52512;SDS011;38422;53.172;6.974;2023-02-02T00:11:45;20.33;;;2.72;;
52512;SDS011;38422;53.172;6.974;2023-02-02T00:14:12;15.25;;;2.20;;
52512;SDS011;38422;53.172;6.974;2023-02-02T00:21:45;16.83;;;2.40;;
52512;SDS011;38422;53.172;6.974;2023-02-02T00:24:12;15.10;;;2.30;;
52512;SDS011;38422;53.172;6.974;2023-02-02T00:26:45;19.02;;;3.03;;
52512;SDS011;38422;53.172;6.974;2023-02-02T00:29:19;15.73;;;2.35;;
52512;SDS011;38422;53.172;6.974;2023-02-02T00:31:47;14.20;;;2.60;;
52512;SDS011;38422;53.172;6.974;2023-02-02T00:34:13;17.08;;;2.40;;
52512;SDS011;38422;53.172;6.974;2023-02-02T00:36:40;11.90;;;2.97;;
52512;SDS011;38422;53.172;6.974;2023-02-02T00:39:06;16.27;;;2.73;;
52512;SDS011;38422;53.172;6.974;2023-02-02T00:41:33;16.20;;;2.60;;
52512;SDS011;38422;53.172;6.974;2023-02-02T00:43:59;16.13;;;2.35;;
52512;SDS011;38422;53.172;6.974;2023-02-02T00:46:43;16.65;;;2.50;;
52512;SDS011;38422;53.172;6.974;2023-02-02T00:49:09;14.43;;;2.25;;
52512;SDS011;38422;53.172;6.974;2023-02-02T00:51:35;19.17;;;3.22;;
52512;SDS011;38422;53.172;6.974;2023-02-02T00:54:02;16.13;;;2.35;;
52512;SDS011;38422;53.172;6.974;2023-02-02T00:56:28;18.55;;;2.88;;
52512;SDS011;38422;53.172;6.974;2023-02-02T00:58:54;17.98;;;2.53;;
52512;SDS011;38422;53.172;6.974;2023-02-02T01:01:20;18.55;;;2.95;;
52512;SDS011;38422;53.172;6.974;2023-02-02T01:03:49;16.90;;;3.20;;
52512;SDS011;38422;53.172;6.974;2023-02-02T01:06:16;23.73;;;3.20;;
52512;SDS011;38422;53.172;6.974;2023-02-02T01:08:42;20.13;;;3.08;;
52512;SDS011;38422;53.172;6.974;2023-02-02T01:11:08;20.45;;;2.88;;
52512;SDS011;38422;53.172;6.974;2023-02-02T01:13:34;20.42;;;2.90;;
52512;SDS011;38422;53.172;6.974;2023-02-02T01:16:00;20.65;;;2.78;;
52512;SDS011;38422;53.172;6.974;2023-02-02T01:18:27;15.83;;;2.60;;
52512;SDS011;38422;53.172;6.974;2023-02-02T01:20:57;19.98;;;2.90;;
52512;SDS011;38422;53.172;6.974;2023-02-02T01:23:24;17.55;;;3.35;;
52512;SDS011;38422;53.172;6.974;2023-02-02T01:25:53;16.83;;;2.70;;
52512;SDS011;38422;53.172;6.974;2023-02-02T01:28:20;19.90;;;3.03;;
52512;SDS011;38422;53.172;6.974;2023-02-02T01:30:46;16.92;;;3.00;;
52512;SDS011;38422;53.172;6.974;2023-02-02T01:33:12;23.20;;;3.47;;
52512;SDS011;38422;53.172;6.974;2023-02-02T01:35:46;14.80;;;3.25;;
52512;SDS011;38422;53.172;6.974;2023-02-02T01:38:16;18.27;;;2.65;;
52512;SDS011;38422;53.172;6.974;2023-02-02T01:40:46;16.08;;;2.72;;
52512;SDS011;38422;53.172;6.974;2023-02-02T01:48:35;16.63;;;2.80;;
52512;SDS011;38422;53.172;6.974;2023-02-02T01:51:03;20.58;;;3.15;;
52512;SDS011;38422;53.172;6.974;2023-02-02T01:53:33;16.90;;;2.40;;
52512;SDS011;38422;53.172;6.974;2023-02-02T01:56:00;17.25;;;2.88;;
52512;SDS011;38422;53.172;6.974;2023-02-02T02:00:54;23.98;;;3.13;;
52512;SDS011;38422;53.172;6.974;2023-02-02T02:03:21;19.15;;;3.00;;
52512;SDS011;38422;53.172;6.974;2023-02-02T02:08:22;22.05;;;3.08;;
52512;SDS011;38422;53.172;6.974;2023-02-02T02:10:52;20.23;;;3.85;;
52512;SDS011;38422;53.172;6.974;2023-02-02T02:13:18;23.38;;;3.58;;
52512;SDS011;38422;53.172;6.974;2023-02-02T02:15:48;21.92;;;2.88;;
52512;SDS011;38422;53.172;6.974;2023-02-02T02:18:58;21.38;;;3.33;;
52512;SDS011;38422;53.172;6.974;2023-02-02T02:30:25;17.60;;;2.55;;
52512;SDS011;38422;53.172;6.974;2023-02-02T02:33:14;27.23;;;3.60;;
52512;SDS011;38422;53.172;6.974;2023-02-02T02:41:16;22.02;;;3.13;;
52512;SDS011;38422;53.172;6.974;2023-02-02T02:43:47;19.88;;;3.35;;
52512;SDS011;38422;53.172;6.974;2023-02-02T02:46:17;19.92;;;3.15;;
52512;SDS011;38422;53.172;6.974;2023-02-02T02:48:44;19.38;;;3.03;;
52512;SDS011;38422;53.172;6.974;2023-02-02T02:54:03;19.77;;;3.40;;
52512;SDS011;38422;53.172;6.974;2023-02-02T02:56:31;19.60;;;2.95;;
52512;SDS011;38422;53.172;6.974;2023-02-02T02:59:07;17.88;;;2.63;;
52512;SDS011;38422;53.172;6.974;2023-02-02T03:07:23;19.25;;;2.88;;
52512;SDS011;38422;53.172;6.974;2023-02-02T03:09:53;23.70;;;3.08;;
52512;SDS011;38422;53.172;6.974;2023-02-02T03:12:22;21.98;;;2.95;;
52512;SDS011;38422;53.172;6.974;2023-02-02T03:14:48;21.02;;;2.70;;
52512;SDS011;38422;53.172;6.974;2023-02-02T03:17:14;23.98;;;2.45;;
52512;SDS011;38422;53.172;6.974;2023-02-02T03:19:40;19.38;;;2.88;;
52512;SDS011;38422;53.172;6.974;2023-02-02T03:22:05;15.65;;;2.63;;
52512;SDS011;38422;53.172;6.974;2023-02-02T03:24:31;17.50;;;2.88;;
52512;SDS011;38422;53.172;6.974;2023-02-02T03:26:57;19.67;;;2.97;;
52512;SDS011;38422;53.172;6.974;2023-02-02T03:29:22;18.33;;;3.25;;
52512;SDS011;38422;53.172;6.974;2023-02-02T03:31:48;20.52;;;3.03;;
52512;SDS011;38422;53.172;6.974;2023-02-02T03:34:14;19.08;;;2.67;;
52512;SDS011;38422;53.172;6.974;2023-02-02T03:36:40;26.77;;;3.50;;
52512;SDS011;38422;53.172;6.974;2023-02-02T03:39:06;19.83;;;2.80;;
52512;SDS011;38422;53.172;6.974;2023-02-02T03:41:31;18.65;;;3.13;;
52512;SDS011;38422;53.172;6.974;2023-02-02T03:43:57;22.65;;;3.33;;
52512;SDS011;38422;53.172;6.974;2023-02-02T03:46:23;21.67;;;3.05;;
52512;SDS011;38422;53.172;6.974;2023-02-02T03:48:48;19.10;;;2.72;;
52512;SDS011;38422;53.172;6.974;2023-02-02T03:51:14;21.17;;;2.72;;
52512;SDS011;38422;53.172;6.974;2023-02-02T03:53:40;24.02;;;4.25;;
52512;SDS011;38422;53.172;6.974;2023-02-02T03:56:11;22.52;;;3.13;;
52512;SDS011;38422;53.172;6.974;2023-02-02T03:58:37;21.02;;;2.88;;
52512;SDS011;38422;53.172;6.974;2023-02-02T04:01:07;16.92;;;3.03;;
52512;SDS011;38422;53.172;6.974;2023-02-02T04:03:35;21.83;;;2.78;;
52512;SDS011;38422;53.172;6.974;2023-02-02T04:06:01;21.27;;;3.10;;
52512;SDS011;38422;53.172;6.974;2023-02-02T04:08:27;20.83;;;2.72;;
52512;SDS011;38422;53.172;6.974;2023-02-02T04:10:54;21.42;;;3.10;;
52512;SDS011;38422;53.172;6.974;2023-02-02T04:13:19;18.15;;;2.58;;
52512;SDS011;38422;53.172;6.974;2023-02-02T04:15:45;22.58;;;2.30;;
52512;SDS011;38422;53.172;6.974;2023-02-02T04:18:11;25.33;;;2.92;;
52512;SDS011;38422;53.172;6.974;2023-02-02T04:20:37;20.80;;;2.90;;
52512;SDS011;38422;53.172;6.974;2023-02-02T04:23:02;17.38;;;2.60;;
52512;SDS011;38422;53.172;6.974;2023-02-02T04:25:28;20.33;;;3.08;;
52512;SDS011;38422;53.172;6.974;2023-02-02T04:27:54;16.95;;;2.30;;
52512;SDS011;38422;53.172;6.974;2023-02-02T04:30:19;18.45;;;2.13;;
52512;SDS011;38422;53.172;6.974;2023-02-02T04:32:45;13.23;;;2.65;;
52512;SDS011;38422;53.172;6.974;2023-02-02T04:35:11;17.85;;;2.92;;
52512;SDS011;38422;53.172;6.974;2023-02-02T04:37:37;16.08;;;2.10;;
52512;SDS011;38422;53.172;6.974;2023-02-02T04:40:03;13.23;;;2.00;;
52512;SDS011;38422;53.172;6.974;2023-02-02T04:42:29;12.90;;;1.80;;
52512;SDS011;38422;53.172;6.974;2023-02-02T04:44:56;11.25;;;1.70;;
52512;SDS011;38422;53.172;6.974;2023-02-02T04:47:22;9.32;;;1.63;;
52512;SDS011;38422;53.172;6.974;2023-02-02T04:49:48;6.10;;;1.35;;
52512;SDS011;38422;53.172;6.974;2023-02-02T04:52:14;8.85;;;1.58;;
52512;SDS011;38422;53.172;6.974;2023-02-02T04:54:40;8.85;;;1.08;;
52512;SDS011;38422;53.172;6.974;2023-02-02T04:57:05;6.35;;;1.15;;
52512;SDS011;38422;53.172;6.974;2023-02-02T04:59:31;6.07;;;0.98;;
52512;SDS011;38422;53.172;6.974;2023-02-02T05:02:00;4.68;;;0.80;;
52512;SDS011;38422;53.172;6.974;2023-02-02T05:04:26;2.47;;;0.70;;
52512;SDS011;38422;53.172;6.974;2023-02-02T05:06:52;5.32;;;0.98;;
52512;SDS011;38422;53.172;6.974;2023-02-02T05:09:18;7.35;;;1.00;;
52512;SDS011;38422;53.172;6.974;2023-02-02T05:11:44;3.45;;;0.60;;
52512;SDS011;38422;53.172;6.974;2023-02-02T05:14:10;3.42;;;0.50;;
52512;SDS011;38422;53.172;6.974;2023-02-02T05:16:35;5.32;;;0.98;;
52512;SDS011;38422;53.172;6.974;2023-02-02T05:19:01;3.75;;;0.75;;
52512;SDS011;38422;53.172;6.974;2023-02-02T05:21:27;6.65;;;0.90;;
52512;SDS011;38422;53.172;6.974;2023-02-02T05:23:53;5.28;;;0.80;;
52512;SDS011;38422;53.172;6.974;2023-02-02T05:26:23;4.68;;;0.95;;
52512;SDS011;38422;53.172;6.974;2023-02-02T05:28:50;6.43;;;0.90;;
52512;SDS011;38422;53.172;6.974;2023-02-02T05:31:16;8.07;;;0.82;;
52512;SDS011;38422;53.172;6.974;2023-02-02T05:33:42;4.97;;;0.65;;
52512;SDS011;38422;53.172;6.974;2023-02-02T05:36:08;6.10;;;0.90;;
52512;SDS011;38422;53.172;6.974;2023-02-02T05:38:34;6.85;;;1.00;;
52512;SDS011;38422;53.172;6.974;2023-02-02T05:41:00;5.07;;;0.68;;
52512;SDS011;38422;53.172;6.974;2023-02-02T05:43:26;4.78;;;0.70;;
52512;SDS011;38422;53.172;6.974;2023-02-02T05:45:53;7.30;;;1.00;;
52512;SDS011;38422;53.172;6.974;2023-02-02T05:48:19;5.72;;;0.90;;
52512;SDS011;38422;53.172;6.974;2023-02-02T05:51:07;8.30;;;1.00;;
52512;SDS011;38422;53.172;6.974;2023-02-02T05:53:34;5.82;;;0.73;;
52512;SDS011;38422;53.172;6.974;2023-02-02T05:56:00;6.63;;;0.80;;
52512;SDS011;38422;53.172;6.974;2023-02-02T05:58:26;3.90;;;0.73;;
52512;SDS011;38422;53.172;6.974;2023-02-02T06:00:52;5.93;;;0.90;;
52512;SDS011;38422;53.172;6.974;2023-02-02T06:03:18;5.57;;;0.90;;
52512;SDS011;38422;53.172;6.974;2023-02-02T06:05:44;5.75;;;0.80;;
52512;SDS011;38422;53.172;6.974;2023-02-02T06:08:09;6.57;;;0.90;;
52512;SDS011;38422;53.172;6.974;2023-02-02T06:10:37;5.22;;;0.80;;
52512;SDS011;38422;53.172;6.974;2023-02-02T06:13:04;5.47;;;0.85;;
52512;SDS011;38422;53.172;6.974;2023-02-02T06:15:29;5.40;;;0.80;;
52512;SDS011;38422;53.172;6.974;2023-02-02T06:17:57;6.40;;;1.08;;
52512;SDS011;38422;53.172;6.974;2023-02-02T06:20:23;4.25;;;0.85;;
52512;SDS011;38422;53.172;6.974;2023-02-02T06:22:48;5.70;;;0.90;;
52512;SDS011;38422;53.172;6.974;2023-02-02T06:25:14;4.32;;;0.70;;
52512;SDS011;38422;53.172;6.974;2023-02-02T06:27:40;3.25;;;0.68;;
52512;SDS011;38422;53.172;6.974;2023-02-02T06:30:06;3.90;;;0.73;;
52512;SDS011;38422;53.172;6.974;2023-02-02T06:32:32;6.28;;;1.02;;
52512;SDS011;38422;53.172;6.974;2023-02-02T06:34:58;7.07;;;0.77;;
52512;SDS011;38422;53.172;6.974;2023-02-02T06:37:23;6.78;;;0.85;;
52512;SDS011;38422;53.172;6.974;2023-02-02T06:39:49;6.32;;;1.00;;
52512;SDS011;38422;53.172;6.974;2023-02-02T06:42:15;5.57;;;0.90;;
52512;SDS011;38422;53.172;6.974;2023-02-02T06:44:41;5.28;;;0.82;;
52512;SDS011;38422;53.172;6.974;2023-02-02T06:47:06;3.97;;;0.90;;
52512;SDS011;38422;53.172;6.974;2023-02-02T06:49:32;5.93;;;0.85;;
52512;SDS011;38422;53.172;6.974;2023-02-02T06:51:58;4.20;;;0.70;;
52512;SDS011;38422;53.172;6.974;2023-02-02T06:54:23;4.97;;;1.30;;
52512;SDS011;38422;53.172;6.974;2023-02-02T06:56:49;5.30;;;0.70;;
52512;SDS011;38422;53.172;6.974;2023-02-02T06:59:15;7.53;;;0.90;;
52512;SDS011;38422;53.172;6.974;2023-02-02T07:01:40;4.82;;;1.02;;
52512;SDS011;38422;53.172;6.974;2023-02-02T07:04:06;6.72;;;1.30;;
52512;SDS011;38422;53.172;6.974;2023-02-02T07:06:31;6.32;;;0.88;;
52512;SDS011;38422;53.172;6.974;2023-02-02T07:08:58;5.65;;;0.85;;
52512;SDS011;38422;53.172;6.974;2023-02-02T07:11:24;7.20;;;1.00;;
52512;SDS011;38422;53.172;6.974;2023-02-02T07:13:50;5.15;;;0.70;;
52512;SDS011;38422;53.172;6.974;2023-02-02T07:16:16;5.32;;;0.70;;
52512;SDS011;38422;53.172;6.974;2023-02-02T07:18:42;4.38;;;1.05;;
52512;SDS011;38422;53.172;6.974;2023-02-02T07:21:14;2.10;;;0.52;;
52512;SDS011;38422;53.172;6.974;2023-02-02T07:23:45;6.43;;;0.77;;
52512;SDS011;38422;53.172;6.974;2023-02-02T07:26:11;5.43;;;1.00;;
52512;SDS011;38422;53.172;6.974;2023-02-02T07:28:38;8.02;;;1.00;;
52512;SDS011;38422;53.172;6.974;2023-02-02T07:31:11;5.70;;;0.95;;
52512;SDS011;38422;53.172;6.974;2023-02-02T07:33:42;4.97;;;0.83;;
52512;SDS011;38422;53.172;6.974;2023-02-02T07:36:09;4.03;;;0.82;;
52512;SDS011;38422;53.172;6.974;2023-02-02T07:41:02;5.18;;;0.93;;
52512;SDS011;38422;53.172;6.974;2023-02-02T07:43:28;4.50;;;1.17;;
52512;SDS011;38422;53.172;6.974;2023-02-02T07:45:58;7.85;;;1.27;;
52512;SDS011;38422;53.172;6.974;2023-02-02T07:48:28;5.82;;;0.80;;
52512;SDS011;38422;53.172;6.974;2023-02-02T07:50:57;7.43;;;0.90;;
52512;SDS011;38422;53.172;6.974;2023-02-02T07:53:24;5.07;;;0.85;;
52512;SDS011;38422;53.172;6.974;2023-02-02T07:55:50;3.65;;;0.90;;
52512;SDS011;38422;53.172;6.974;2023-02-02T07:58:16;7.20;;;1.17;;
52512;SDS011;38422;53.172;6.974;2023-02-02T08:00:42;6.85;;;1.05;;
52512;SDS011;38422;53.172;6.974;2023-02-02T08:03:09;3.58;;;0.88;;
52512;SDS011;38422;53.172;6.974;2023-02-02T08:05:36;7.05;;;1.10;;
52512;SDS011;38422;53.172;6.974;2023-02-02T08:08:02;7.13;;;1.00;;
52512;SDS011;38422;53.172;6.974;2023-02-02T08:10:28;5.85;;;1.20;;
52512;SDS011;38422;53.172;6.974;2023-02-02T08:12:54;7.07;;;0.95;;
52512;SDS011;38422;53.172;6.974;2023-02-02T08:15:20;6.80;;;1.00;;
52512;SDS011;38422;53.172;6.974;2023-02-02T08:17:46;8.32;;;1.13;;
52512;SDS011;38422;53.172;6.974;2023-02-02T08:20:14;3.05;;;0.75;;
52512;SDS011;38422;53.172;6.974;2023-02-02T08:22:39;8.75;;;1.00;;
52512;SDS011;38422;53.172;6.974;2023-02-02T08:25:06;4.90;;;0.90;;
52512;SDS011;38422;53.172;6.974;2023-02-02T08:27:32;6.70;;;0.93;;
52512;SDS011;38422;53.172;6.974;2023-02-02T08:29:57;4.30;;;0.90;;
52512;SDS011;38422;53.172;6.974;2023-02-02T08:32:23;2.92;;;0.80;;
52512;SDS011;38422;53.172;6.974;2023-02-02T08:34:49;6.50;;;1.20;;
52512;SDS011;38422;53.172;6.974;2023-02-02T08:37:17;4.22;;;0.88;;
52512;SDS011;38422;53.172;6.974;2023-02-02T08:39:43;5.22;;;0.90;;
52512;SDS011;38422;53.172;6.974;2023-02-02T08:42:08;5.95;;;1.10;;
52512;SDS011;38422;53.172;6.974;2023-02-02T08:44:34;4.40;;;0.73;;
52512;SDS011;38422;53.172;6.974;2023-02-02T08:47:00;4.75;;;0.93;;
52512;SDS011;38422;53.172;6.974;2023-02-02T08:49:25;6.30;;;1.05;;
52512;SDS011;38422;53.172;6.974;2023-02-02T08:51:51;4.90;;;1.05;;
52512;SDS011;38422;53.172;6.974;2023-02-02T08:54:17;6.40;;;1.02;;
52512;SDS011;38422;53.172;6.974;2023-02-02T08:56:43;4.65;;;1.02;;
52512;SDS011;38422;53.172;6.974;2023-02-02T08:59:08;6.80;;;0.90;;
52512;SDS011;38422;53.172;6.974;2023-02-02T09:01:34;4.40;;;1.10;;
52512;SDS011;38422;53.172;6.974;2023-02-02T09:04:04;7.07;;;1.10;;
52512;SDS011;38422;53.172;6.974;2023-02-02T09:06:33;4.05;;;0.90;;
52512;SDS011;38422;53.172;6.974;2023-02-02T09:09:00;3.88;;;0.98;;
52512;SDS011;38422;53.172;6.974;2023-02-02T09:11:27;2.50;;;0.85;;
52512;SDS011;38422;53.172;6.974;2023-02-02T09:13:54;3.67;;;1.00;;
52512;SDS011;38422;53.172;6.974;2023-02-02T09:16:22;4.22;;;0.70;;
52512;SDS011;38422;53.172;6.974;2023-02-02T09:18:49;4.78;;;0.88;;
52512;SDS011;38422;53.172;6.974;2023-02-02T09:21:15;3.28;;;0.80;;
52512;SDS011;38422;53.172;6.974;2023-02-02T09:26:12;5.65;;;0.95;;
52512;SDS011;38422;53.172;6.974;2023-02-02T09:28:45;5.05;;;0.90;;
52512;SDS011;38422;53.172;6.974;2023-02-02T09:31:13;5.70;;;1.00;;
52512;SDS011;38422;53.172;6.974;2023-02-02T09:33:40;5.07;;;0.80;;
52512;SDS011;38422;53.172;6.974;2023-02-02T09:36:07;3.47;;;1.13;;
52512;SDS011;38422;53.172;6.974;2023-02-02T09:38:35;5.43;;;0.93;;
52512;SDS011;38422;53.172;6.974;2023-02-02T09:41:09;4.93;;;0.80;;
52512;SDS011;38422;53.172;6.974;2023-02-02T09:43:51;3.95;;;1.00;;
52512;SDS011;38422;53.172;6.974;2023-02-02T09:52:11;4.15;;;0.85;;
52512;SDS011;38422;53.172;6.974;2023-02-02T09:54:47;5.63;;;0.98;;
52512;SDS011;38422;53.172;6.974;2023-02-02T09:57:20;4.28;;;0.70;;
52512;SDS011;38422;53.172;6.974;2023-02-02T09:59:49;5.72;;;0.80;;
52512;SDS011;38422;53.172;6.974;2023-02-02T10:02:21;4.88;;;0.93;;
52512;SDS011;38422;53.172;6.974;2023-02-02T10:04:59;4.18;;;0.60;;
52512;SDS011;38422;53.172;6.974;2023-02-02T10:07:42;3.10;;;0.70;;
52512;SDS011;38422;53.172;6.974;2023-02-02T10:21:05;4.07;;;0.90;;
52512;SDS011;38422;53.172;6.974;2023-02-02T10:23:41;3.78;;;1.10;;
52512;SDS011;38422;53.172;6.974;2023-02-02T10:37:35;6.30;;;0.85;;
52512;SDS011;38422;53.172;6.974;2023-02-02T10:46:22;4.30;;;0.90;;
52512;SDS011;38422;53.172;6.974;2023-02-02T10:48:57;7.63;;;0.98;;
52512;SDS011;38422;53.172;6.974;2023-02-02T10:51:36;6.03;;;1.00;;
52512;SDS011;38422;53.172;6.974;2023-02-02T10:54:06;4.78;;;0.98;;
52512;SDS011;38422;53.172;6.974;2023-02-02T10:56:44;5.03;;;1.13;;
52512;SDS011;38422;53.172;6.974;2023-02-02T10:59:21;5.25;;;1.10;;
52512;SDS011;38422;53.172;6.974;2023-02-02T11:01:56;4.32;;;0.95;;
52512;SDS011;38422;53.172;6.974;2023-02-02T11:04:22;4.47;;;0.90;;
52512;SDS011;38422;53.172;6.974;2023-02-02T11:07:08;3.65;;;0.90;;
52512;SDS011;38422;53.172;6.974;2023-02-02T11:09:43;5.10;;;1.10;;
52512;SDS011;38422;53.172;6.974;2023-02-02T11:15:06;5.32;;;1.00;;
52512;SDS011;38422;53.172;6.974;2023-02-02T11:17:46;3.72;;;0.85;;
52512;SDS011;38422;53.172;6.974;2023-02-02T11:20:22;3.97;;;0.70;;
52512;SDS011;38422;53.172;6.974;2023-02-02T11:23:00;5.35;;;1.20;;
52512;SDS011;38422;53.172;6.974;2023-02-02T11:25:35;5.88;;;0.80;;
52512;SDS011;38422;53.172;6.974;2023-02-02T11:28:11;3.05;;;0.68;;
52512;SDS011;38422;53.172;6.974;2023-02-02T11:30:47;3.85;;;0.90;;
52512;SDS011;38422;53.172;6.974;2023-02-02T11:33:30;6.07;;;1.00;;
52512;SDS011;38422;53.172;6.974;2023-02-02T11:36:16;4.30;;;0.90;;
52512;SDS011;38422;53.172;6.974;2023-02-02T11:38:44;3.97;;;0.95;;
52512;SDS011;38422;53.172;6.974;2023-02-02T11:41:09;6.10;;;1.00;;
52512;SDS011;38422;53.172;6.974;2023-02-02T11:43:38;3.58;;;1.00;;
52512;SDS011;38422;53.172;6.974;2023-02-02T11:48:48;5.10;;;0.75;;
52512;SDS011;38422;53.172;6.974;2023-02-02T11:51:37;5.30;;;0.95;;
52512;SDS011;38422;53.172;6.974;2023-02-02T11:54:04;3.25;;;1.00;;
52512;SDS011;38422;53.172;6.974;2023-02-02T11:56:39;7.07;;;1.20;;
52512;SDS011;38422;53.172;6.974;2023-02-02T11:59:08;5.00;;;1.00;;
52512;SDS011;38422;53.172;6.974;2023-02-02T12:04:45;5.95;;;0.80;;
52512;SDS011;38422;53.172;6.974;2023-02-02T12:07:21;6.68;;;1.13;;
52512;SDS011;38422;53.172;6.974;2023-02-02T12:09:56;4.88;;;0.88;;
52512;SDS011;38422;53.172;6.974;2023-02-02T12:15:07;5.47;;;0.85;;
52512;SDS011;38422;53.172;6.974;2023-02-02T12:17:51;6.07;;;0.98;;
52512;SDS011;38422;53.172;6.974;2023-02-02T12:20:41;4.78;;;0.80;;
52512;SDS011;38422;53.172;6.974;2023-02-02T12:23:24;4.00;;;0.80;;
52512;SDS011;38422;53.172;6.974;2023-02-02T12:41:15;6.93;;;1.13;;
52512;SDS011;38422;53.172;6.974;2023-02-02T12:46:11;4.47;;;0.73;;
52512;SDS011;38422;53.172;6.974;2023-02-02T13:10:44;3.03;;;0.73;;
52512;SDS011;38422;53.172;6.974;2023-02-02T13:13:16;3.85;;;0.70;;
52512;SDS011;38422;53.172;6.974;2023-02-02T13:15:48;4.22;;;0.93;;
52512;SDS011;38422;53.172;6.974;2023-02-02T13:18:22;2.72;;;0.50;;
52512;SDS011;38422;53.172;6.974;2023-02-02T13:21:19;4.47;;;0.60;;
52512;SDS011;38422;53.172;6.974;2023-02-02T13:23:48;2.92;;;0.50;;
52512;SDS011;38422;53.172;6.974;2023-02-02T13:26:17;1.85;;;0.50;;
52512;SDS011;38422;53.172;6.974;2023-02-02T13:34:44;3.70;;;1.00;;
52512;SDS011;38422;53.172;6.974;2023-02-02T13:39:57;3.30;;;0.70;;
52512;SDS011;38422;53.172;6.974;2023-02-02T13:45:23;4.07;;;1.52;;
52512;SDS011;38422;53.172;6.974;2023-02-02T13:56:43;6.05;;;1.52;;
52512;SDS011;38422;53.172;6.974;2023-02-02T14:01:43;8.00;;;1.70;;
52512;SDS011;38422;53.172;6.974;2023-02-02T14:04:22;8.85;;;2.60;;
52512;SDS011;38422;53.172;6.974;2023-02-02T14:07:04;9.63;;;5.70;;
52512;SDS011;38422;53.172;6.974;2023-02-02T14:09:32;11.15;;;6.38;;
52512;SDS011;38422;53.172;6.974;2023-02-02T14:12:04;11.93;;;7.47;;
52512;SDS011;38422;53.172;6.974;2023-02-02T14:14:34;14.80;;;7.72;;
52512;SDS011;38422;53.172;6.974;2023-02-02T14:19:58;10.55;;;6.63;;
52512;SDS011;38422;53.172;6.974;2023-02-02T14:22:44;7.03;;;3.40;;
52512;SDS011;38422;53.172;6.974;2023-02-02T14:28:11;6.68;;;2.03;;
52512;SDS011;38422;53.172;6.974;2023-02-02T14:34:10;5.93;;;1.20;;
52512;SDS011;38422;53.172;6.974;2023-02-02T14:36:52;4.10;;;1.30;;
52512;SDS011;38422;53.172;6.974;2023-02-02T14:45:39;4.18;;;1.08;;
52512;SDS011;38422;53.172;6.974;2023-02-02T14:53:14;4.72;;;1.13;;
52512;SDS011;38422;53.172;6.974;2023-02-02T14:56:05;5.55;;;0.90;;
52512;SDS011;38422;53.172;6.974;2023-02-02T15:06:45;4.80;;;0.90;;
52512;SDS011;38422;53.172;6.974;2023-02-02T15:19:41;12.57;;;6.03;;
52512;SDS011;38422;53.172;6.974;2023-02-02T15:24:47;5.57;;;2.15;;
52512;SDS011;38422;53.172;6.974;2023-02-02T15:27:14;4.93;;;1.20;;
52512;SDS011;38422;53.172;6.974;2023-02-02T15:29:43;5.60;;;1.60;;
52512;SDS011;38422;53.172;6.974;2023-02-02T15:32:16;34.30;;;18.02;;
52512;SDS011;38422;53.172;6.974;2023-02-02T15:34:47;5.72;;;1.83;;
52512;SDS011;38422;53.172;6.974;2023-02-02T15:37:36;5.95;;;1.80;;
52512;SDS011;38422;53.172;6.974;2023-02-02T15:40:15;6.80;;;1.63;;
52512;SDS011;38422;53.172;6.974;2023-02-02T15:42:48;3.97;;;1.40;;
52512;SDS011;38422;53.172;6.974;2023-02-02T15:45:41;6.20;;;1.52;;
52512;SDS011;38422;53.172;6.974;2023-02-02T15:50:47;5.20;;;1.30;;
52512;SDS011;38422;53.172;6.974;2023-02-02T15:53:19;3.92;;;1.50;;
52512;SDS011;38422;53.172;6.974;2023-02-02T15:55:47;4.70;;;2.03;;
52512;SDS011;38422;53.172;6.974;2023-02-02T16:00:56;7.07;;;3.25;;
52512;SDS011;38422;53.172;6.974;2023-02-02T16:03:32;5.45;;;2.70;;
52512;SDS011;38422;53.172;6.974;2023-02-02T16:06:15;7.57;;;2.28;;
52512;SDS011;38422;53.172;6.974;2023-02-02T16:08:42;6.82;;;2.65;;
52512;SDS011;38422;53.172;6.974;2023-02-02T16:11:13;8.43;;;2.67;;
52512;SDS011;38422;53.172;6.974;2023-02-02T16:13:55;7.15;;;3.10;;
52512;SDS011;38422;53.172;6.974;2023-02-02T16:16:27;6.65;;;3.45;;
52512;SDS011;38422;53.172;6.974;2023-02-02T16:19:01;9.55;;;3.50;;
52512;SDS011;38422;53.172;6.974;2023-02-02T16:21:30;8.20;;;3.10;;
52512;SDS011;38422;53.172;6.974;2023-02-02T16:23:57;5.38;;;3.13;;
52512;SDS011;38422;53.172;6.974;2023-02-02T16:26:24;6.57;;;3.53;;
52512;SDS011;38422;53.172;6.974;2023-02-02T16:28:54;5.72;;;3.30;;
52512;SDS011;38422;53.172;6.974;2023-02-02T16:31:20;7.07;;;3.78;;
52512;SDS011;38422;53.172;6.974;2023-02-02T16:33:46;7.72;;;4.35;;
52512;SDS011;38422;53.172;6.974;2023-02-02T16:36:21;8.45;;;4.70;;
52512;SDS011;38422;53.172;6.974;2023-02-02T16:38:49;9.25;;;5.10;;
52512;SDS011;38422;53.172;6.974;2023-02-02T16:50:04;10.80;;;7.70;;
52512;SDS011;38422;53.172;6.974;2023-02-02T16:53:22;10.70;;;7.68;;
52512;SDS011;38422;53.172;6.974;2023-02-02T16:55:47;10.10;;;6.80;;
52512;SDS011;38422;53.172;6.974;2023-02-02T16:58:17;10.60;;;6.65;;
52512;SDS011;38422;53.172;6.974;2023-02-02T17:00:51;9.77;;;6.95;;
52512;SDS011;38422;53.172;6.974;2023-02-02T17:03:21;13.45;;;7.60;;
52512;SDS011;38422;53.172;6.974;2023-02-02T17:05:52;12.32;;;7.63;;
52512;SDS011;38422;53.172;6.974;2023-02-02T17:08:32;13.43;;;8.23;;
52512;SDS011;38422;53.172;6.974;2023-02-02T17:11:05;12.32;;;7.18;;
52512;SDS011;38422;53.172;6.974;2023-02-02T17:13:42;11.70;;;7.40;;
52512;SDS011;38422;53.172;6.974;2023-02-02T17:16:11;12.60;;;7.63;;
52512;SDS011;38422;53.172;6.974;2023-02-02T17:18:40;12.15;;;7.43;;
52512;SDS011;38422;53.172;6.974;2023-02-02T17:21:06;11.98;;;6.97;;
52512;SDS011;38422;53.172;6.974;2023-02-02T17:23:37;10.60;;;6.35;;
52512;SDS011;38422;53.172;6.974;2023-02-02T17:26:08;10.65;;;5.78;;
52512;SDS011;38422;53.172;6.974;2023-02-02T17:28:35;12.05;;;6.15;;
52512;SDS011;38422;53.172;6.974;2023-02-02T17:31:08;9.63;;;6.00;;
52512;SDS011;38422;53.172;6.974;2023-02-02T17:33:36;9.50;;;5.10;;
52512;SDS011;38422;53.172;6.974;2023-02-02T17:36:02;11.70;;;5.68;;
52512;SDS011;38422;53.172;6.974;2023-02-02T17:38:29;10.83;;;6.17;;
52512;SDS011;38422;53.172;6.974;2023-02-02T17:43:23;10.85;;;5.80;;
52512;SDS011;38422;53.172;6.974;2023-02-02T17:45:49;12.70;;;7.03;;
52512;SDS011;38422;53.172;6.974;2023-02-02T17:48:14;14.10;;;6.50;;
52512;SDS011;38422;53.172;6.974;2023-02-02T17:50:40;9.73;;;6.25;;
52512;SDS011;38422;53.172;6.974;2023-02-02T17:53:10;12.30;;;6.57;;
52512;SDS011;38422;53.172;6.974;2023-02-02T17:55:38;12.23;;;6.90;;
52512;SDS011;38422;53.172;6.974;2023-02-02T17:58:06;15.63;;;7.85;;
52512;SDS011;38422;53.172;6.974;2023-02-02T18:00:37;12.23;;;6.60;;
52512;SDS011;38422;53.172;6.974;2023-02-02T18:05:37;12.90;;;7.15;;
52512;SDS011;38422;53.172;6.974;2023-02-02T18:08:03;12.77;;;7.78;;
52512;SDS011;38422;53.172;6.974;2023-02-02T18:10:29;13.75;;;7.72;;
52512;SDS011;38422;53.172;6.974;2023-02-02T18:12:55;19.38;;;8.55;;
52512;SDS011;38422;53.172;6.974;2023-02-02T18:15:21;17.80;;;9.23;;
52512;SDS011;38422;53.172;6.974;2023-02-02T18:17:47;16.52;;;8.80;;
52512;SDS011;38422;53.172;6.974;2023-02-02T18:20:13;20.42;;;9.05;;
52512;SDS011;38422;53.172;6.974;2023-02-02T18:22:39;19.27;;;9.13;;
52512;SDS011;38422;53.172;6.974;2023-02-02T18:25:11;21.42;;;9.38;;
52512;SDS011;38422;53.172;6.974;2023-02-02T18:27:37;18.00;;;9.13;;
52512;SDS011;38422;53.172;6.974;2023-02-02T18:30:02;21.63;;;9.27;;